createdAt,value
2023-04-27T00:02:11.971Z,4.54
2023-04-27T00:04:39.135Z,4.55
2023-04-27T00:07:08.551Z,4.56
2023-04-27T00:09:38.487Z,4.52
2023-04-27T00:12:11.109Z,4.51
2023-04-27T00:14:37.940Z,4.55
2023-04-27T00:17:07.458Z,4.62
2023-04-27T00:19:35.003Z,4.66
2023-04-27T00:22:06.055Z,4.78
2023-04-27T00:24:34.954Z,4.76
2023-04-27T00:27:03.394Z,4.74
2023-04-27T00:29:33.572Z,4.57
2023-04-27T00:32:03.622Z,4.49
2023-04-27T00:34:31.239Z,4.50
2023-04-27T00:36:58.259Z,4.45
2023-04-27T00:39:25.509Z,4.42
2023-04-27T00:41:52.747Z,4.37
2023-04-27T00:44:28.305Z,4.39
2023-04-27T00:46:56.440Z,4.34
2023-04-27T00:49:24.198Z,4.35
2023-04-27T00:51:50.974Z,4.39
2023-04-27T00:54:23.976Z,4.41
2023-04-27T00:56:52.225Z,4.33
2023-04-27T00:59:23.342Z,4.31
2023-04-27T01:01:52.629Z,4.32
2023-04-27T01:04:20.147Z,4.35
2023-04-27T01:06:47.725Z,4.43
2023-04-27T01:09:14.890Z,4.39
2023-04-27T01:11:41.779Z,4.37
2023-04-27T01:14:08.517Z,4.36
2023-04-27T01:16:35.867Z,4.37
2023-04-27T01:19:02.667Z,4.45
2023-04-27T01:21:29.432Z,4.59
2023-04-27T01:24:01.613Z,4.62
2023-04-27T01:26:29.201Z,4.65
2023-04-27T01:28:56.968Z,4.69
2023-04-27T01:31:31.564Z,4.69
2023-04-27T01:33:58.897Z,4.77
2023-04-27T01:36:25.706Z,4.79
2023-04-27T01:38:55.947Z,4.81
2023-04-27T01:41:25.068Z,4.72
2023-04-27T01:43:52.170Z,4.59
2023-04-27T01:46:19.702Z,4.55
2023-04-27T01:48:47.152Z,4.57
2023-04-27T01:51:15.394Z,4.54
2023-04-27T01:53:47.403Z,4.51
2023-04-27T01:56:17.074Z,4.50
2023-04-27T01:58:44.419Z,4.55
2023-04-27T02:01:12.745Z,4.54
2023-04-27T02:03:40.215Z,4.52
2023-04-27T02:06:12.666Z,4.53
2023-04-27T02:08:39.871Z,4.55
2023-04-27T02:11:09.279Z,4.59
2023-04-27T02:13:36.192Z,4.60
2023-04-27T02:16:05.385Z,4.56
2023-04-27T02:18:35.329Z,4.62
2023-04-27T02:21:12.978Z,4.52
2023-04-27T02:23:41.058Z,4.59
2023-04-27T02:26:08.497Z,4.66
2023-04-27T02:28:39.651Z,4.66
2023-04-27T02:33:50.338Z,4.75
2023-04-27T02:36:17.565Z,4.70
2023-04-27T02:38:45.078Z,4.70
2023-04-27T02:41:13.156Z,4.71
2023-04-27T02:43:43.642Z,4.69
2023-04-27T02:46:10.588Z,4.61
2023-04-27T02:48:40.909Z,4.59
2023-04-27T02:51:07.732Z,4.64
2023-04-27T02:53:34.595Z,4.68
2023-04-27T02:56:01.669Z,4.71
2023-04-27T02:58:28.667Z,4.72
2023-04-27T03:00:56.346Z,4.72
2023-04-27T03:03:24.218Z,4.79
2023-04-27T03:05:51.174Z,4.79
2023-04-27T03:08:20.211Z,4.78
2023-04-27T03:10:50.375Z,4.74
2023-04-27T03:13:20.661Z,4.73
2023-04-27T03:15:47.671Z,4.61
2023-04-27T03:18:17.883Z,4.53
2023-04-27T03:20:45.578Z,4.48
2023-04-27T03:23:14.854Z,4.39
2023-04-27T03:25:42.079Z,4.56
2023-04-27T03:28:09.383Z,4.52
2023-04-27T03:30:36.656Z,4.56
2023-04-27T03:33:03.910Z,4.59
2023-04-27T03:35:30.753Z,4.53
2023-04-27T03:37:57.381Z,4.54
2023-04-27T03:40:24.185Z,4.56
2023-04-27T03:42:50.902Z,4.58
2023-04-27T03:45:19.243Z,4.63
2023-04-27T03:47:46.075Z,4.64
2023-04-27T03:50:14.367Z,4.67
2023-04-27T03:52:44.799Z,4.72
2023-04-27T03:55:11.989Z,4.75
2023-04-27T03:57:41.778Z,4.78
2023-04-27T04:00:12.452Z,4.74
2023-04-27T04:02:43.419Z,4.65
2023-04-27T04:05:19.567Z,4.65
2023-04-27T04:07:49.932Z,4.56
2023-04-27T04:10:18.123Z,4.40
2023-04-27T04:12:47.637Z,4.30
2023-04-27T04:15:20.774Z,4.40
2023-04-27T04:17:50.060Z,4.50
2023-04-27T04:20:22.248Z,4.38
2023-04-27T04:22:49.178Z,4.33
2023-04-27T04:25:16.586Z,4.44
2023-04-27T04:27:45.714Z,4.46
2023-04-27T04:30:13.483Z,4.47
2023-04-27T04:32:41.117Z,4.51
2023-04-27T04:35:08.834Z,4.39
2023-04-27T04:37:36.873Z,4.51
2023-04-27T04:40:11.115Z,4.51
2023-04-27T04:42:39.279Z,4.65
2023-04-27T04:45:08.596Z,4.67
2023-04-27T04:47:36.914Z,4.66
2023-04-27T04:50:04.228Z,4.78
2023-04-27T04:52:32.846Z,4.86
2023-04-27T04:55:03.089Z,4.97
2023-04-27T04:57:33.630Z,5.05
2023-04-27T05:00:02.054Z,5.13
2023-04-27T05:02:29.353Z,5.17
2023-04-27T05:05:01.395Z,5.24
2023-04-27T05:07:28.386Z,5.34
2023-04-27T05:09:58.033Z,5.34
2023-04-27T05:12:31.104Z,5.37
2023-04-27T05:14:58.680Z,5.45
2023-04-27T05:17:27.368Z,5.48
2023-04-27T05:19:58.583Z,5.57
2023-04-27T05:22:27.236Z,5.62
2023-04-27T05:24:54.174Z,5.62
2023-04-27T05:27:21.798Z,5.68
2023-04-27T05:29:50.830Z,5.46
2023-04-27T05:32:19.509Z,5.61
2023-04-27T05:34:49.286Z,5.78
2023-04-27T05:37:16.347Z,5.90
2023-04-27T05:39:43.031Z,5.90
2023-04-27T05:42:09.769Z,6.05
2023-04-27T05:44:36.760Z,6.17
2023-04-27T05:47:03.471Z,6.27
2023-04-27T05:49:30.704Z,6.36
2023-04-27T05:51:59.441Z,6.49
2023-04-27T05:54:27.647Z,6.41
2023-04-27T05:56:54.563Z,6.56
2023-04-27T05:59:22.084Z,6.71
2023-04-27T06:01:49.238Z,6.88
2023-04-27T06:04:16.523Z,6.95
2023-04-27T06:06:44.863Z,7.07
2023-04-27T06:09:11.752Z,7.12
2023-04-27T06:11:38.655Z,7.14
2023-04-27T06:14:05.416Z,6.94
2023-04-27T06:16:32.210Z,6.94
2023-04-27T06:18:59.062Z,7.11
2023-04-27T06:21:26.550Z,7.40
2023-04-27T06:23:53.234Z,7.63
2023-04-27T06:26:19.905Z,7.85
2023-04-27T06:28:46.915Z,8.01
2023-04-27T06:31:14.126Z,8.21
2023-04-27T06:33:41.380Z,8.37
2023-04-27T06:36:08.368Z,8.34
2023-04-27T06:38:35.229Z,8.28
2023-04-27T06:41:03.074Z,8.33
2023-04-27T06:43:30.360Z,8.53
2023-04-27T06:45:57.580Z,8.70
2023-04-27T06:48:24.411Z,8.77
2023-04-27T06:50:52.070Z,8.82
2023-04-27T06:53:18.759Z,8.82
2023-04-27T06:55:47.578Z,8.91
2023-04-27T06:58:15.261Z,9.03
2023-04-27T07:00:42.065Z,9.13
2023-04-27T07:03:08.931Z,9.34
2023-04-27T07:05:35.740Z,9.43
2023-04-27T07:08:05.354Z,9.63
2023-04-27T07:10:33.900Z,9.51
2023-04-27T07:13:01.321Z,9.59
2023-04-27T07:15:28.065Z,9.87
2023-04-27T07:17:54.811Z,10.13
2023-04-27T07:20:21.581Z,10.18
2023-04-27T07:22:48.278Z,10.33
2023-04-27T07:25:15.097Z,10.38
2023-04-27T07:27:41.805Z,10.25
2023-04-27T07:30:10.080Z,9.80
2023-04-27T07:32:39.274Z,9.78
2023-04-27T07:35:06.425Z,9.13
2023-04-27T07:37:33.647Z,9.53
2023-04-27T07:40:00.360Z,9.79
2023-04-27T07:42:27.059Z,10.05
2023-04-27T07:44:54.312Z,10.35
2023-04-27T07:47:21.857Z,10.35
2023-04-27T07:49:48.682Z,10.24
2023-04-27T07:52:15.900Z,10.39
2023-04-27T07:54:42.742Z,10.65
2023-04-27T07:57:13.434Z,10.23
2023-04-27T07:59:40.335Z,9.93
2023-04-27T08:02:19.178Z,9.98
2023-04-27T08:04:47.939Z,9.78
2023-04-27T08:07:17.332Z,9.81
2023-04-27T08:09:44.457Z,9.86
2023-04-27T08:12:11.097Z,9.94
2023-04-27T08:14:37.783Z,10.20
2023-04-27T08:17:04.577Z,10.72
2023-04-27T08:19:31.409Z,11.09
2023-04-27T08:21:58.153Z,11.32
2023-04-27T08:24:24.830Z,10.87
2023-04-27T08:26:51.656Z,11.28
2023-04-27T08:29:27.212Z,11.54
2023-04-27T08:31:58.307Z,11.00
2023-04-27T08:34:25.886Z,10.79
2023-04-27T08:36:53.202Z,11.12
2023-04-27T08:39:20.730Z,11.11
2023-04-27T08:41:47.472Z,10.70
2023-04-27T08:44:14.321Z,10.60
2023-04-27T08:46:41.332Z,10.71
2023-04-27T08:49:08.669Z,10.50
2023-04-27T08:51:35.697Z,10.17
2023-04-27T08:54:02.899Z,10.41
2023-04-27T08:56:30.736Z,10.29
2023-04-27T08:58:58.950Z,10.87
2023-04-27T09:01:27.596Z,10.72
2023-04-27T09:04:07.730Z,10.95
2023-04-27T09:06:35.847Z,10.75
2023-04-27T09:09:04.119Z,11.12
2023-04-27T09:11:35.037Z,11.35
2023-04-27T09:14:04.022Z,11.00
2023-04-27T09:16:31.434Z,11.41
2023-04-27T09:18:58.819Z,11.72
2023-04-27T09:21:27.949Z,11.67
2023-04-27T09:23:57.634Z,11.18
2023-04-27T09:26:27.651Z,11.20
2023-04-27T09:28:58.489Z,10.74
2023-04-27T09:31:36.065Z,10.89
2023-04-27T09:34:04.009Z,11.26
2023-04-27T09:36:32.494Z,11.47
2023-04-27T09:39:02.317Z,11.24
2023-04-27T09:41:29.681Z,11.39
2023-04-27T09:43:58.079Z,11.76
2023-04-27T09:46:26.066Z,11.65
2023-04-27T09:48:53.456Z,11.95
2023-04-27T09:51:20.208Z,12.32
2023-04-27T09:53:51.612Z,12.52
2023-04-27T09:56:26.266Z,12.77
2023-04-27T09:59:03.771Z,11.84
2023-04-27T10:01:45.770Z,11.57
2023-04-27T10:04:27.850Z,11.75
2023-04-27T10:06:58.230Z,11.79
2023-04-27T10:09:25.475Z,11.96
2023-04-27T10:11:54.543Z,11.84
2023-04-27T10:14:22.837Z,11.83
2023-04-27T10:16:55.031Z,12.04
2023-04-27T10:19:23.571Z,12.38
2023-04-27T10:22:07.771Z,12.57
2023-04-27T10:24:36.982Z,12.85
2023-04-27T10:27:05.990Z,12.25
2023-04-27T10:29:41.887Z,12.02
2023-04-27T10:32:12.530Z,11.78
2023-04-27T10:34:40.047Z,12.20
2023-04-27T10:37:11.954Z,12.12
2023-04-27T10:39:49.381Z,12.30
2023-04-27T10:42:28.830Z,12.42
2023-04-27T10:44:59.398Z,12.31
2023-04-27T10:47:42.510Z,11.81
2023-04-27T10:50:14.330Z,11.83
2023-04-27T10:52:44.545Z,12.28
2023-04-27T10:55:16.139Z,11.91
2023-04-27T10:57:51.098Z,12.26
2023-04-27T11:00:47.006Z,12.54
2023-04-27T11:03:15.913Z,12.73
2023-04-27T11:05:45.153Z,12.87
2023-04-27T11:08:14.269Z,13.03
2023-04-27T11:10:50.228Z,13.34
2023-04-27T11:13:22.994Z,13.19
2023-04-27T11:15:55.319Z,12.56
2023-04-27T11:18:24.904Z,12.72
2023-04-27T11:20:54.223Z,13.05
2023-04-27T11:23:25.449Z,12.42
2023-04-27T11:25:52.701Z,12.84
2023-04-27T11:28:24.108Z,12.42
2023-04-27T11:30:58.059Z,12.71
2023-04-27T11:33:24.992Z,12.28
2023-04-27T11:35:52.240Z,12.26
2023-04-27T11:38:19.973Z,12.61
2023-04-27T11:40:47.913Z,13.16
2023-04-27T11:43:15.400Z,12.86
2023-04-27T11:45:46.426Z,13.01
2023-04-27T11:48:16.799Z,13.18
2023-04-27T11:50:48.404Z,12.78
2023-04-27T11:53:16.788Z,12.93
2023-04-27T11:55:45.784Z,13.32
2023-04-27T11:58:18.941Z,13.85
2023-04-27T12:00:47.553Z,13.82
2023-04-27T12:03:14.638Z,14.32
2023-04-27T12:05:52.320Z,14.33
2023-04-27T12:08:19.555Z,14.68
2023-04-27T12:10:46.935Z,15.02
2023-04-27T12:13:14.409Z,15.20
2023-04-27T12:15:42.409Z,15.38
2023-04-27T12:18:09.805Z,15.19
2023-04-27T12:20:36.970Z,15.08
2023-04-27T12:23:03.690Z,15.21
2023-04-27T12:25:30.523Z,15.45
2023-04-27T12:27:57.878Z,15.08
2023-04-27T12:30:24.603Z,15.07
2023-04-27T12:32:51.446Z,14.91
2023-04-27T12:35:18.298Z,14.39
2023-04-27T12:37:45.178Z,14.63
2023-04-27T12:40:12.522Z,14.83
2023-04-27T12:42:39.372Z,14.95
2023-04-27T12:45:06.679Z,15.26
2023-04-27T12:47:53.826Z,15.36
2023-04-27T12:50:21.725Z,15.45
2023-04-27T12:52:48.516Z,15.62
2023-04-27T12:55:29.016Z,15.52
2023-04-27T12:57:59.580Z,15.34
2023-04-27T13:00:26.514Z,15.15
2023-04-27T13:02:53.819Z,15.31
2023-04-27T13:05:22.253Z,15.60
2023-04-27T13:07:49.355Z,15.18
2023-04-27T13:10:16.244Z,14.51
2023-04-27T13:12:43.151Z,14.32
2023-04-27T13:15:10.423Z,14.76
2023-04-27T13:17:37.423Z,15.21
2023-04-27T13:20:04.550Z,15.16
2023-04-27T13:22:31.190Z,15.21
2023-04-27T13:24:58.151Z,15.39
2023-04-27T13:27:28.367Z,15.42
2023-04-27T13:29:55.192Z,15.59
2023-04-27T13:32:22.567Z,14.90
2023-04-27T13:34:49.614Z,15.09
2023-04-27T13:37:16.880Z,15.42
2023-04-27T13:39:43.564Z,15.68
2023-04-27T13:42:10.271Z,15.92
2023-04-27T13:44:37.026Z,16.06
2023-04-27T13:47:03.906Z,16.26
2023-04-27T13:49:30.910Z,16.02
2023-04-27T13:51:58.510Z,15.74
2023-04-27T13:54:25.426Z,14.95
2023-04-27T13:56:52.157Z,14.59
2023-04-27T13:59:18.940Z,14.52
2023-04-27T14:01:45.902Z,14.27
2023-04-27T14:04:12.772Z,13.79
2023-04-27T14:06:39.680Z,13.92
2023-04-27T14:09:06.321Z,13.91
2023-04-27T14:11:42.118Z,14.04
2023-04-27T14:14:12.113Z,14.14
2023-04-27T14:16:38.849Z,14.09
2023-04-27T14:19:05.623Z,14.20
2023-04-27T14:21:32.274Z,13.94
2023-04-27T14:23:59.032Z,13.71
2023-04-27T14:26:26.870Z,13.53
2023-04-27T14:28:57.429Z,13.70
2023-04-27T14:31:26.637Z,13.90
2023-04-27T14:33:53.443Z,13.69
2023-04-27T14:36:20.396Z,13.66
2023-04-27T14:38:47.560Z,13.82
2023-04-27T14:41:14.303Z,13.78
2023-04-27T14:43:41.885Z,13.69
2023-04-27T14:46:20.244Z,13.48
2023-04-27T14:48:48.974Z,13.42
2023-04-27T14:51:16.343Z,13.70
2023-04-27T14:53:44.017Z,13.66
2023-04-27T14:56:11.311Z,13.67
2023-04-27T14:58:37.932Z,13.17
2023-04-27T15:01:04.752Z,13.21
2023-04-27T15:03:34.588Z,13.01
2023-04-27T15:06:02.348Z,13.02
2023-04-27T15:08:30.739Z,13.01
2023-04-27T15:11:00.140Z,13.11
2023-04-27T15:13:28.012Z,13.14
2023-04-27T15:15:56.260Z,13.01
2023-04-27T15:18:23.608Z,13.00
2023-04-27T15:20:57.179Z,13.03
2023-04-27T15:23:24.724Z,13.00
2023-04-27T15:25:55.643Z,13.05
2023-04-27T15:28:22.402Z,12.96
2023-04-27T15:30:49.505Z,12.92
2023-04-27T15:33:17.152Z,13.15
2023-04-27T15:35:44.254Z,13.15
2023-04-27T15:38:12.742Z,13.27
2023-04-27T15:40:40.522Z,13.23
2023-04-27T15:43:07.574Z,13.44
2023-04-27T15:45:34.239Z,13.25
2023-04-27T15:48:01.015Z,13.28
2023-04-27T15:50:27.781Z,13.27
2023-04-27T15:52:54.720Z,13.37
2023-04-27T15:55:22.228Z,13.42
2023-04-27T15:57:49.034Z,13.29
2023-04-27T16:00:19.333Z,13.30
2023-04-27T16:02:46.468Z,13.20
2023-04-27T16:05:14.427Z,13.15
2023-04-27T16:07:43.241Z,13.11
2023-04-27T16:10:10.318Z,13.07
2023-04-27T16:12:37.184Z,12.86
2023-04-27T16:15:04.722Z,12.82
2023-04-27T16:17:37.055Z,12.88
2023-04-27T16:20:06.844Z,12.96
2023-04-27T16:22:34.640Z,12.97
2023-04-27T16:25:01.868Z,13.02
2023-04-27T16:27:28.538Z,13.04
2023-04-27T16:29:56.320Z,13.03
2023-04-27T16:32:23.506Z,13.00
2023-04-27T16:34:50.587Z,12.89
2023-04-27T16:37:17.282Z,12.88
2023-04-27T16:39:43.963Z,12.86
2023-04-27T16:42:10.807Z,12.80
2023-04-27T16:44:38.128Z,12.78
2023-04-27T16:47:04.861Z,12.80
2023-04-27T16:49:31.800Z,12.72
2023-04-27T16:51:58.462Z,12.80
2023-04-27T16:54:25.088Z,12.82
2023-04-27T16:56:53.239Z,12.85
2023-04-27T16:59:22.033Z,12.89
2023-04-27T17:01:48.880Z,12.92
2023-04-27T17:04:15.822Z,12.90
2023-04-27T17:06:45.332Z,12.88
2023-04-27T17:09:12.176Z,12.98
2023-04-27T17:11:38.937Z,12.92
2023-04-27T17:14:05.889Z,12.96
2023-04-27T17:16:32.679Z,12.96
2023-04-27T17:18:59.423Z,12.88
2023-04-27T17:21:27.493Z,12.80
2023-04-27T17:23:54.448Z,12.75
2023-04-27T17:26:21.617Z,12.75
2023-04-27T17:28:49.387Z,12.59
2023-04-27T17:31:19.238Z,12.54
2023-04-27T17:33:46.042Z,12.52
2023-04-27T17:36:13.005Z,12.44
2023-04-27T17:38:39.770Z,12.34
2023-04-27T17:41:06.675Z,12.29
2023-04-27T17:43:33.452Z,12.22
2023-04-27T17:46:00.208Z,12.14
2023-04-27T17:48:26.996Z,12.03
2023-04-27T17:50:53.731Z,11.96
2023-04-27T17:53:20.590Z,11.88
2023-04-27T17:55:47.978Z,11.74
2023-04-27T17:58:15.814Z,11.60
2023-04-27T18:00:43.537Z,11.32
2023-04-27T18:03:11.737Z,11.15
2023-04-27T18:05:38.685Z,10.98
2023-04-27T18:08:05.888Z,10.89
2023-04-27T18:10:32.547Z,10.68
2023-04-27T18:12:59.356Z,10.55
2023-04-27T18:15:26.012Z,10.38
2023-04-27T18:17:52.900Z,10.38
2023-04-27T18:20:19.601Z,10.33
2023-04-27T18:22:46.522Z,10.24
2023-04-27T18:25:13.352Z,10.12
2023-04-27T18:27:40.083Z,10.01
2023-04-27T18:30:10.497Z,9.88
2023-04-27T18:32:37.788Z,9.84
2023-04-27T18:35:05.658Z,9.66
2023-04-27T18:37:32.427Z,9.69
2023-04-27T18:39:59.148Z,9.58
2023-04-27T18:42:25.880Z,9.50
2023-04-27T18:44:54.968Z,9.38
2023-04-27T18:47:21.796Z,9.25
2023-04-27T18:49:48.620Z,9.19
2023-04-27T18:52:15.650Z,9.14
2023-04-27T18:54:42.561Z,8.95
2023-04-27T18:57:09.423Z,8.85
2023-04-27T18:59:38.781Z,8.79
2023-04-27T19:02:07.193Z,8.81
2023-04-27T19:04:34.261Z,8.77
2023-04-27T19:07:02.084Z,8.72
2023-04-27T19:09:29.051Z,8.68
2023-04-27T19:12:02.866Z,8.53
2023-04-27T19:14:30.884Z,8.52
2023-04-27T19:16:57.703Z,8.49
2023-04-27T19:19:25.104Z,8.44
2023-04-27T19:21:52.117Z,8.38
2023-04-27T19:24:18.779Z,8.37
2023-04-27T19:26:46.769Z,8.30
2023-04-27T19:29:13.774Z,8.16
2023-04-27T19:31:41.034Z,8.10
2023-04-27T19:34:07.923Z,8.10
2023-04-27T19:36:34.559Z,8.03
2023-04-27T19:39:01.269Z,7.90
2023-04-27T19:41:28.351Z,7.80
2023-04-27T19:43:55.493Z,7.71
2023-04-27T19:46:22.297Z,7.68
2023-04-27T19:48:49.082Z,7.69
2023-04-27T19:51:15.807Z,7.64
2023-04-27T19:53:42.660Z,7.41
2023-04-27T19:56:09.359Z,7.45
2023-04-27T19:58:37.217Z,7.42
2023-04-27T20:01:04.109Z,7.42
2023-04-27T20:03:31.060Z,7.39
2023-04-27T20:05:58.462Z,7.40
2023-04-27T20:08:25.663Z,7.37
2023-04-27T20:10:52.384Z,7.45
2023-04-27T20:13:19.228Z,7.47
2023-04-27T20:15:46.667Z,7.42
2023-04-27T20:18:13.468Z,7.47
2023-04-27T20:20:42.020Z,7.39
2023-04-27T20:23:08.719Z,7.41
2023-04-27T20:25:36.578Z,7.32
2023-04-27T20:28:03.771Z,7.22
2023-04-27T20:30:30.802Z,7.16
2023-04-27T20:32:57.520Z,7.01
2023-04-27T20:35:24.420Z,6.91
2023-04-27T20:37:52.052Z,6.82
2023-04-27T20:40:19.149Z,6.73
2023-04-27T20:42:46.217Z,6.75
2023-04-27T20:45:13.258Z,6.75
2023-04-27T20:47:40.396Z,6.68
2023-04-27T20:50:07.983Z,6.62
2023-04-27T20:52:35.180Z,6.65
2023-04-27T20:55:03.613Z,6.59
2023-04-27T20:57:30.301Z,6.51
2023-04-27T20:59:57.144Z,6.35
2023-04-27T21:02:23.874Z,6.14
2023-04-27T21:04:51.034Z,6.08
2023-04-27T21:07:17.939Z,6.13
2023-04-27T21:09:44.934Z,6.08
2023-04-27T21:12:14.549Z,6.05
2023-04-27T21:14:41.307Z,5.98
2023-04-27T21:17:08.279Z,5.96
2023-04-27T21:19:35.306Z,5.91
2023-04-27T21:22:02.314Z,5.90
2023-04-27T21:24:29.175Z,5.84
2023-04-27T21:26:55.959Z,5.81
2023-04-27T21:29:22.672Z,5.69
2023-04-27T21:31:49.379Z,5.64
2023-04-27T21:34:16.257Z,5.73
2023-04-27T21:36:43.110Z,5.74
2023-04-27T21:39:09.763Z,5.72
2023-04-27T21:41:37.212Z,5.72
2023-04-27T21:44:04.015Z,5.70
2023-04-27T21:46:30.774Z,5.67
2023-04-27T21:48:57.581Z,5.55
2023-04-27T21:51:24.285Z,5.53
2023-04-27T21:53:51.040Z,5.53
2023-04-27T21:56:17.763Z,5.64
2023-04-27T21:58:44.521Z,5.53
2023-04-27T22:01:13.038Z,5.56
2023-04-27T22:03:39.911Z,5.68
2023-04-27T22:06:07.551Z,5.71
2023-04-27T22:08:35.063Z,5.71
2023-04-27T22:11:01.950Z,5.63
2023-04-27T22:13:28.847Z,5.60
2023-04-27T22:15:55.821Z,5.54
2023-04-27T22:18:22.602Z,5.47
2023-04-27T22:20:49.548Z,5.40
2023-04-27T22:23:16.650Z,5.36
2023-04-27T22:25:43.402Z,5.44
2023-04-27T22:28:11.038Z,5.61
2023-04-27T22:30:38.061Z,5.64
2023-04-27T22:33:04.943Z,5.75
2023-04-27T22:35:32.816Z,5.87
2023-04-27T22:37:59.896Z,5.87
2023-04-27T22:40:26.990Z,5.78
2023-04-27T22:42:55.070Z,5.97
2023-04-27T22:45:23.013Z,6.05
2023-04-27T22:47:50.117Z,6.26
2023-04-27T22:50:17.107Z,6.29
2023-04-27T22:52:44.152Z,6.15
2023-04-27T22:55:12.196Z,6.02
2023-04-27T22:57:39.796Z,5.65
2023-04-27T23:00:11.456Z,5.60
2023-04-27T23:02:42.810Z,5.61
2023-04-27T23:05:11.036Z,5.53
2023-04-27T23:07:38.425Z,5.47
2023-04-27T23:10:06.031Z,5.44
2023-04-27T23:12:33.386Z,5.61
2023-04-27T23:15:00.130Z,5.88
2023-04-27T23:17:33.075Z,5.95
2023-04-27T23:20:01.600Z,5.83
2023-04-27T23:22:28.766Z,5.85
2023-04-27T23:24:55.595Z,5.74
2023-04-27T23:27:23.685Z,5.66
2023-04-27T23:29:50.708Z,5.76
2023-04-27T23:32:17.461Z,5.76
2023-04-27T23:34:44.401Z,5.83
2023-04-27T23:37:11.193Z,5.77
2023-04-27T23:39:38.407Z,5.65
2023-04-27T23:42:05.239Z,5.53
2023-04-27T23:44:32.072Z,5.45
2023-04-27T23:46:58.705Z,5.48
2023-04-27T23:49:25.481Z,5.53
2023-04-27T23:51:52.760Z,5.50
2023-04-27T23:54:19.477Z,5.52
2023-04-27T23:56:46.469Z,5.43
2023-04-27T23:59:15.022Z,5.47
